sensor_id;sensor_type;location;lat;lon;timestamp;pressure;altitude;pressure_sealevel;temperature;humidity
14232;BME280;7200;52.194;9.900;2023-07-13T00:00:52;100050.63;;;20.94;100.00
14232;BME280;7200;52.194;9.900;2023-07-13T00:03:17;100048.94;;;20.93;100.00
14232;BME280;7200;52.194;9.900;2023-07-13T00:05:43;100049.06;;;20.91;100.00
14232;BME280;7200;52.194;9.900;2023-07-13T00:08:08;100051.69;;;20.82;100.00
14232;BME280;7200;52.194;9.900;2023-07-13T00:10:34;100055.78;;;20.86;100.00
14232;BME280;7200;52.194;9.900;2023-07-13T00:13:03;100053.16;;;20.95;100.00
14232;BME280;7200;52.194;9.900;2023-07-13T00:15:28;100049.56;;;21.06;100.00
14232;BME280;7200;52.194;9.900;2023-07-13T00:17:56;100058.88;;;21.02;100.00
14232;BME280;7200;52.194;9.900;2023-07-13T00:20:23;100055.38;;;20.90;100.00
14232;BME280;7200;52.194;9.900;2023-07-13T00:22:51;100071.94;;;20.95;100.00
14232;BME280;7200;52.194;9.900;2023-07-13T00:25:19;100064.78;;;21.06;100.00
14232;BME280;7200;52.194;9.900;2023-07-13T00:27:47;100054.66;;;21.09;100.00
14232;BME280;7200;52.194;9.900;2023-07-13T00:30:14;100063.56;;;21.10;100.00
14232;BME280;7200;52.194;9.900;2023-07-13T00:32:40;100062.09;;;21.06;100.00
14232;BME280;7200;52.194;9.900;2023-07-13T00:35:06;100055.06;;;21.05;100.00
14232;BME280;7200;52.194;9.900;2023-07-13T00:37:32;100057.56;;;20.96;100.00
14232;BME280;7200;52.194;9.900;2023-07-13T00:39:57;100060.31;;;21.06;100.00
14232;BME280;7200;52.194;9.900;2023-07-13T00:42:23;100058.97;;;21.22;100.00
14232;BME280;7200;52.194;9.900;2023-07-13T00:45:02;100064.78;;;21.27;100.00
14232;BME280;7200;52.194;9.900;2023-07-13T00:47:28;100064.06;;;21.04;100.00
14232;BME280;7200;52.194;9.900;2023-07-13T00:49:53;100066.50;;;21.07;100.00
14232;BME280;7200;52.194;9.900;2023-07-13T00:52:18;100063.22;;;21.03;100.00
14232;BME280;7200;52.194;9.900;2023-07-13T00:54:45;100056.25;;;20.91;100.00
14232;BME280;7200;52.194;9.900;2023-07-13T00:57:15;100045.84;;;20.76;100.00
14232;BME280;7200;52.194;9.900;2023-07-13T00:59:45;100050.38;;;20.76;100.00
14232;BME280;7200;52.194;9.900;2023-07-13T01:02:11;100040.59;;;20.96;100.00
14232;BME280;7200;52.194;9.900;2023-07-13T01:04:37;100054.72;;;20.98;100.00
14232;BME280;7200;52.194;9.900;2023-07-13T01:07:04;100050.81;;;20.81;100.00
14232;BME280;7200;52.194;9.900;2023-07-13T01:09:30;100046.81;;;20.75;100.00
14232;BME280;7200;52.194;9.900;2023-07-13T01:11:55;100048.47;;;20.67;100.00
14232;BME280;7200;52.194;9.900;2023-07-13T01:14:20;100055.81;;;20.65;100.00
14232;BME280;7200;52.194;9.900;2023-07-13T01:16:46;100063.28;;;20.50;100.00
14232;BME280;7200;52.194;9.900;2023-07-13T01:22:01;100060.25;;;20.43;100.00
14232;BME280;7200;52.194;9.900;2023-07-13T01:24:26;100063.31;;;20.38;100.00
14232;BME280;7200;52.194;9.900;2023-07-13T01:26:51;100062.59;;;20.36;100.00
14232;BME280;7200;52.194;9.900;2023-07-13T01:29:17;100066.69;;;20.19;100.00
14232;BME280;7200;52.194;9.900;2023-07-13T01:31:42;100069.16;;;20.00;100.00
14232;BME280;7200;52.194;9.900;2023-07-13T01:34:09;100062.59;;;19.93;100.00
14232;BME280;7200;52.194;9.900;2023-07-13T01:36:34;100056.53;;;19.79;100.00
14232;BME280;7200;52.194;9.900;2023-07-13T01:39:01;100064.69;;;19.89;100.00
14232;BME280;7200;52.194;9.900;2023-07-13T01:41:27;100066.97;;;19.94;100.00
14232;BME280;7200;52.194;9.900;2023-07-13T01:43:52;100067.38;;;19.89;100.00
14232;BME280;7200;52.194;9.900;2023-07-13T01:46:17;100073.78;;;19.98;100.00
14232;BME280;7200;52.194;9.900;2023-07-13T01:48:43;100072.72;;;19.89;100.00
14232;BME280;7200;52.194;9.900;2023-07-13T01:51:08;100081.72;;;19.77;100.00
14232;BME280;7200;52.194;9.900;2023-07-13T01:53:33;100084.78;;;19.83;100.00
14232;BME280;7200;52.194;9.900;2023-07-13T01:55:58;100081.09;;;19.96;100.00
14232;BME280;7200;52.194;9.900;2023-07-13T01:58:24;100090.13;;;19.83;100.00
14232;BME280;7200;52.194;9.900;2023-07-13T02:00:49;100084.53;;;19.75;100.00
14232;BME280;7200;52.194;9.900;2023-07-13T02:03:16;100092.53;;;19.98;100.00
14232;BME280;7200;52.194;9.900;2023-07-13T02:05:43;100093.66;;;19.84;100.00
14232;BME280;7200;52.194;9.900;2023-07-13T02:08:09;100095.72;;;19.80;100.00
14232;BME280;7200;52.194;9.900;2023-07-13T02:10:34;100092.66;;;19.74;100.00
14232;BME280;7200;52.194;9.900;2023-07-13T02:12:59;100093.53;;;19.86;100.00
14232;BME280;7200;52.194;9.900;2023-07-13T02:15:25;100106.19;;;19.83;100.00
14232;BME280;7200;52.194;9.900;2023-07-13T02:17:50;100096.31;;;19.84;100.00
14232;BME280;7200;52.194;9.900;2023-07-13T02:20:15;100104.09;;;19.87;100.00
14232;BME280;7200;52.194;9.900;2023-07-13T02:22:41;100105.22;;;19.73;100.00
14232;BME280;7200;52.194;9.900;2023-07-13T02:25:06;100096.34;;;19.73;100.00
14232;BME280;7200;52.194;9.900;2023-07-13T02:27:31;100099.09;;;19.71;100.00
14232;BME280;7200;52.194;9.900;2023-07-13T02:29:57;100101.56;;;19.63;100.00
14232;BME280;7200;52.194;9.900;2023-07-13T02:32:22;100094.88;;;19.80;100.00
14232;BME280;7200;52.194;9.900;2023-07-13T02:34:50;100101.91;;;19.47;100.00
14232;BME280;7200;52.194;9.900;2023-07-13T02:37:15;100100.69;;;19.51;100.00
14232;BME280;7200;52.194;9.900;2023-07-13T02:39:40;100099.84;;;19.51;100.00
14232;BME280;7200;52.194;9.900;2023-07-13T02:42:06;100097.78;;;19.43;100.00
14232;BME280;7200;52.194;9.900;2023-07-13T02:44:31;100090.84;;;19.40;100.00
14232;BME280;7200;52.194;9.900;2023-07-13T02:46:57;100083.56;;;19.42;100.00
14232;BME280;7200;52.194;9.900;2023-07-13T02:49:22;100088.03;;;19.31;100.00
14232;BME280;7200;52.194;9.900;2023-07-13T02:51:47;100092.19;;;19.35;100.00
14232;BME280;7200;52.194;9.900;2023-07-13T02:54:13;100095.94;;;19.32;100.00
14232;BME280;7200;52.194;9.900;2023-07-13T02:56:39;100101.19;;;19.45;100.00
14232;BME280;7200;52.194;9.900;2023-07-13T02:59:04;100099.94;;;19.49;100.00
14232;BME280;7200;52.194;9.900;2023-07-13T03:01:30;100103.72;;;19.35;100.00
14232;BME280;7200;52.194;9.900;2023-07-13T03:03:55;100098.94;;;19.05;100.00
14232;BME280;7200;52.194;9.900;2023-07-13T03:06:21;100094.81;;;19.01;100.00
14232;BME280;7200;52.194;9.900;2023-07-13T03:08:47;100096.78;;;19.21;100.00
14232;BME280;7200;52.194;9.900;2023-07-13T03:11:18;100094.09;;;19.10;100.00
14232;BME280;7200;52.194;9.900;2023-07-13T03:13:44;100088.97;;;19.07;100.00
14232;BME280;7200;52.194;9.900;2023-07-13T03:16:10;100091.78;;;19.28;100.00
14232;BME280;7200;52.194;9.900;2023-07-13T03:18:36;100080.03;;;19.19;100.00
14232;BME280;7200;52.194;9.900;2023-07-13T03:21:02;100087.19;;;19.30;100.00
14232;BME280;7200;52.194;9.900;2023-07-13T03:23:28;100090.44;;;19.11;100.00
14232;BME280;7200;52.194;9.900;2023-07-13T03:26:04;100098.13;;;19.27;100.00
14232;BME280;7200;52.194;9.900;2023-07-13T03:28:32;100086.94;;;19.22;100.00
14232;BME280;7200;52.194;9.900;2023-07-13T03:31:06;100090.84;;;19.18;100.00
14232;BME280;7200;52.194;9.900;2023-07-13T03:33:31;100089.72;;;19.20;100.00
14232;BME280;7200;52.194;9.900;2023-07-13T03:35:57;100092.06;;;19.25;100.00
14232;BME280;7200;52.194;9.900;2023-07-13T03:38:22;100094.97;;;19.22;100.00
14232;BME280;7200;52.194;9.900;2023-07-13T03:40:48;100099.44;;;19.10;100.00
14232;BME280;7200;52.194;9.900;2023-07-13T03:43:14;100093.59;;;19.05;100.00
14232;BME280;7200;52.194;9.900;2023-07-13T03:45:39;100092.03;;;19.02;100.00
14232;BME280;7200;52.194;9.900;2023-07-13T03:48:05;100097.72;;;18.98;100.00
14232;BME280;7200;52.194;9.900;2023-07-13T03:50:30;100103.44;;;18.93;100.00
14232;BME280;7200;52.194;9.900;2023-07-13T03:52:57;100098.44;;;19.00;100.00
14232;BME280;7200;52.194;9.900;2023-07-13T03:55:23;100091.75;;;18.94;100.00
14232;BME280;7200;52.194;9.900;2023-07-13T03:57:54;100093.22;;;19.10;100.00
14232;BME280;7200;52.194;9.900;2023-07-13T04:00:22;100091.06;;;19.15;100.00
14232;BME280;7200;52.194;9.900;2023-07-13T04:02:47;100097.38;;;19.02;100.00
14232;BME280;7200;52.194;9.900;2023-07-13T04:05:15;100098.22;;;19.03;100.00
14232;BME280;7200;52.194;9.900;2023-07-13T04:07:40;100101.97;;;19.12;100.00
14232;BME280;7200;52.194;9.900;2023-07-13T04:10:06;100093.09;;;19.00;100.00
14232;BME280;7200;52.194;9.900;2023-07-13T04:12:31;100095.44;;;19.04;100.00
14232;BME280;7200;52.194;9.900;2023-07-13T04:14:57;100108.81;;;19.04;100.00
14232;BME280;7200;52.194;9.900;2023-07-13T04:17:25;100104.66;;;19.12;100.00
14232;BME280;7200;52.194;9.900;2023-07-13T04:19:50;100106.25;;;19.14;100.00
14232;BME280;7200;52.194;9.900;2023-07-13T04:22:16;100111.09;;;19.09;100.00
14232;BME280;7200;52.194;9.900;2023-07-13T04:24:41;100111.84;;;19.22;100.00
14232;BME280;7200;52.194;9.900;2023-07-13T04:27:06;100109.88;;;19.13;100.00
14232;BME280;7200;52.194;9.900;2023-07-13T04:29:32;100108.31;;;19.11;100.00
14232;BME280;7200;52.194;9.900;2023-07-13T04:31:58;100115.31;;;19.00;100.00
14232;BME280;7200;52.194;9.900;2023-07-13T04:34:23;100112.44;;;19.15;100.00
14232;BME280;7200;52.194;9.900;2023-07-13T04:36:49;100121.19;;;19.17;100.00
14232;BME280;7200;52.194;9.900;2023-07-13T04:39:15;100120.25;;;19.18;100.00
14232;BME280;7200;52.194;9.900;2023-07-13T04:41:40;100115.38;;;19.23;100.00
14232;BME280;7200;52.194;9.900;2023-07-13T04:44:05;100116.44;;;19.09;100.00
14232;BME280;7200;52.194;9.900;2023-07-13T04:46:30;100116.09;;;19.02;100.00
14232;BME280;7200;52.194;9.900;2023-07-13T04:48:56;100112.56;;;19.13;100.00
14232;BME280;7200;52.194;9.900;2023-07-13T04:51:22;100117.69;;;19.16;100.00
14232;BME280;7200;52.194;9.900;2023-07-13T04:53:47;100114.19;;;19.27;100.00
14232;BME280;7200;52.194;9.900;2023-07-13T04:56:12;100114.91;;;19.18;100.00
14232;BME280;7200;52.194;9.900;2023-07-13T04:58:38;100130.38;;;19.48;100.00
14232;BME280;7200;52.194;9.900;2023-07-13T05:01:04;100128.94;;;19.55;100.00
14232;BME280;7200;52.194;9.900;2023-07-13T05:03:30;100138.25;;;19.27;100.00
14232;BME280;7200;52.194;9.900;2023-07-13T05:05:58;100133.75;;;19.39;100.00
14232;BME280;7200;52.194;9.900;2023-07-13T05:08:24;100128.66;;;19.47;100.00
14232;BME280;7200;52.194;9.900;2023-07-13T05:10:50;100141.09;;;19.59;100.00
14232;BME280;7200;52.194;9.900;2023-07-13T05:13:16;100143.88;;;19.58;100.00
14232;BME280;7200;52.194;9.900;2023-07-13T05:15:41;100139.84;;;19.52;100.00
14232;BME280;7200;52.194;9.900;2023-07-13T05:18:06;100141.06;;;19.48;100.00
14232;BME280;7200;52.194;9.900;2023-07-13T05:20:31;100145.19;;;19.41;100.00
14232;BME280;7200;52.194;9.900;2023-07-13T05:22:57;100146.06;;;19.53;100.00
14232;BME280;7200;52.194;9.900;2023-07-13T05:25:23;100155.91;;;19.52;100.00
14232;BME280;7200;52.194;9.900;2023-07-13T05:27:48;100159.47;;;19.75;100.00
14232;BME280;7200;52.194;9.900;2023-07-13T05:30:14;100160.47;;;19.86;100.00
14232;BME280;7200;52.194;9.900;2023-07-13T05:32:39;100163.25;;;20.07;100.00
14232;BME280;7200;52.194;9.900;2023-07-13T05:35:05;100166.38;;;20.34;100.00
14232;BME280;7200;52.194;9.900;2023-07-13T05:37:31;100175.16;;;20.14;100.00
14232;BME280;7200;52.194;9.900;2023-07-13T05:39:56;100183.53;;;20.20;100.00
14232;BME280;7200;52.194;9.900;2023-07-13T05:42:21;100184.16;;;20.13;100.00
14232;BME280;7200;52.194;9.900;2023-07-13T05:44:47;100178.88;;;20.34;100.00
14232;BME280;7200;52.194;9.900;2023-07-13T05:47:12;100180.56;;;20.57;100.00
14232;BME280;7200;52.194;9.900;2023-07-13T05:49:39;100188.53;;;20.36;100.00
14232;BME280;7200;52.194;9.900;2023-07-13T05:52:05;100185.47;;;20.41;100.00
14232;BME280;7200;52.194;9.900;2023-07-13T05:54:30;100195.81;;;20.46;100.00
14232;BME280;7200;52.194;9.900;2023-07-13T05:56:55;100191.78;;;20.51;100.00
14232;BME280;7200;52.194;9.900;2023-07-13T05:59:20;100199.94;;;20.93;100.00
14232;BME280;7200;52.194;9.900;2023-07-13T06:01:46;100195.88;;;20.78;100.00
14232;BME280;7200;52.194;9.900;2023-07-13T06:04:11;100208.06;;;20.59;100.00
14232;BME280;7200;52.194;9.900;2023-07-13T06:06:36;100201.38;;;20.54;100.00
14232;BME280;7200;52.194;9.900;2023-07-13T06:09:02;100210.41;;;20.53;100.00
14232;BME280;7200;52.194;9.900;2023-07-13T06:11:27;100216.72;;;20.74;100.00
14232;BME280;7200;52.194;9.900;2023-07-13T06:13:55;100208.97;;;20.92;100.00
14232;BME280;7200;52.194;9.900;2023-07-13T06:16:20;100208.44;;;20.55;100.00
14232;BME280;7200;52.194;9.900;2023-07-13T06:18:46;100217.22;;;20.57;100.00
14232;BME280;7200;52.194;9.900;2023-07-13T06:21:14;100210.34;;;20.20;100.00
14232;BME280;7200;52.194;9.900;2023-07-13T06:23:40;100215.91;;;20.51;100.00
14232;BME280;7200;52.194;9.900;2023-07-13T06:26:06;100221.50;;;20.48;100.00
14232;BME280;7200;52.194;9.900;2023-07-13T06:28:32;100224.69;;;20.42;100.00
14232;BME280;7200;52.194;9.900;2023-07-13T06:30:59;100218.75;;;20.82;100.00
14232;BME280;7200;52.194;9.900;2023-07-13T06:33:25;100225.06;;;20.92;100.00
14232;BME280;7200;52.194;9.900;2023-07-13T06:35:50;100229.50;;;20.82;100.00
14232;BME280;7200;52.194;9.900;2023-07-13T06:38:16;100247.59;;;21.01;100.00
14232;BME280;7200;52.194;9.900;2023-07-13T06:40:41;100240.84;;;20.74;100.00
14232;BME280;7200;52.194;9.900;2023-07-13T06:43:07;100244.88;;;20.69;100.00
14232;BME280;7200;52.194;9.900;2023-07-13T06:45:41;100236.25;;;20.31;100.00
14232;BME280;7200;52.194;9.900;2023-07-13T06:48:06;100244.31;;;20.09;100.00
14232;BME280;7200;52.194;9.900;2023-07-13T06:50:33;100245.88;;;20.22;100.00
14232;BME280;7200;52.194;9.900;2023-07-13T06:52:58;100246.88;;;20.10;100.00
14232;BME280;7200;52.194;9.900;2023-07-13T06:55:24;100253.81;;;20.01;100.00
14232;BME280;7200;52.194;9.900;2023-07-13T06:57:50;100250.28;;;20.12;100.00
14232;BME280;7200;52.194;9.900;2023-07-13T07:00:15;100251.59;;;20.40;100.00
14232;BME280;7200;52.194;9.900;2023-07-13T07:02:40;100256.25;;;20.27;100.00
14232;BME280;7200;52.194;9.900;2023-07-13T07:05:06;100253.91;;;20.11;100.00
14232;BME280;7200;52.194;9.900;2023-07-13T07:07:31;100259.16;;;20.13;100.00
14232;BME280;7200;52.194;9.900;2023-07-13T07:09:56;100244.44;;;20.07;100.00
14232;BME280;7200;52.194;9.900;2023-07-13T07:12:22;100260.00;;;20.02;100.00
14232;BME280;7200;52.194;9.900;2023-07-13T07:14:47;100252.56;;;19.94;100.00
14232;BME280;7200;52.194;9.900;2023-07-13T07:17:12;100255.25;;;19.83;100.00
14232;BME280;7200;52.194;9.900;2023-07-13T07:19:38;100261.59;;;19.93;100.00
14232;BME280;7200;52.194;9.900;2023-07-13T07:22:03;100252.34;;;19.86;100.00
14232;BME280;7200;52.194;9.900;2023-07-13T07:24:29;100254.50;;;19.81;100.00
14232;BME280;7200;52.194;9.900;2023-07-13T07:26:54;100249.44;;;20.00;100.00
14232;BME280;7200;52.194;9.900;2023-07-13T07:29:19;100253.06;;;20.22;100.00
14232;BME280;7200;52.194;9.900;2023-07-13T07:31:44;100256.00;;;20.19;100.00
14232;BME280;7200;52.194;9.900;2023-07-13T07:34:10;100264.28;;;20.16;100.00
14232;BME280;7200;52.194;9.900;2023-07-13T07:36:35;100261.22;;;20.09;100.00
14232;BME280;7200;52.194;9.900;2023-07-13T07:39:00;100260.16;;;20.12;100.00
14232;BME280;7200;52.194;9.900;2023-07-13T07:41:25;100269.53;;;20.06;100.00
14232;BME280;7200;52.194;9.900;2023-07-13T07:43:51;100265.25;;;20.15;100.00
14232;BME280;7200;52.194;9.900;2023-07-13T07:46:16;100269.88;;;20.24;100.00
14232;BME280;7200;52.194;9.900;2023-07-13T07:48:41;100269.25;;;20.43;100.00
14232;BME280;7200;52.194;9.900;2023-07-13T07:51:07;100268.63;;;20.51;100.00
14232;BME280;7200;52.194;9.900;2023-07-13T07:53:32;100280.97;;;20.42;100.00
14232;BME280;7200;52.194;9.900;2023-07-13T07:55:57;100281.69;;;20.44;100.00
14232;BME280;7200;52.194;9.900;2023-07-13T07:58:22;100283.47;;;20.55;100.00
14232;BME280;7200;52.194;9.900;2023-07-13T08:00:48;100281.19;;;20.39;100.00
14232;BME280;7200;52.194;9.900;2023-07-13T08:03:13;100274.25;;;20.48;100.00
14232;BME280;7200;52.194;9.900;2023-07-13T08:05:38;100272.03;;;20.41;100.00
14232;BME280;7200;52.194;9.900;2023-07-13T08:08:04;100270.59;;;20.37;100.00
14232;BME280;7200;52.194;9.900;2023-07-13T08:10:29;100271.44;;;20.15;100.00
14232;BME280;7200;52.194;9.900;2023-07-13T08:12:54;100274.28;;;20.25;100.00
14232;BME280;7200;52.194;9.900;2023-07-13T08:15:20;100271.31;;;20.51;100.00
14232;BME280;7200;52.194;9.900;2023-07-13T08:17:47;100278.53;;;20.39;100.00
14232;BME280;7200;52.194;9.900;2023-07-13T08:20:13;100277.28;;;20.66;100.00
14232;BME280;7200;52.194;9.900;2023-07-13T08:22:38;100283.59;;;20.87;100.00
14232;BME280;7200;52.194;9.900;2023-07-13T08:25:04;100277.00;;;20.91;100.00
14232;BME280;7200;52.194;9.900;2023-07-13T08:27:29;100286.56;;;21.05;100.00
14232;BME280;7200;52.194;9.900;2023-07-13T08:29:54;100289.63;;;21.12;100.00
14232;BME280;7200;52.194;9.900;2023-07-13T08:32:21;100301.91;;;21.14;100.00
14232;BME280;7200;52.194;9.900;2023-07-13T08:34:47;100300.84;;;21.06;100.00
14232;BME280;7200;52.194;9.900;2023-07-13T08:37:13;100296.38;;;20.95;100.00
14232;BME280;7200;52.194;9.900;2023-07-13T08:39:38;100293.03;;;21.14;100.00
14232;BME280;7200;52.194;9.900;2023-07-13T08:45:04;100301.63;;;21.29;100.00
14232;BME280;7200;52.194;9.900;2023-07-13T08:47:35;100295.63;;;21.04;100.00
14232;BME280;7200;52.194;9.900;2023-07-13T08:50:03;100292.34;;;21.33;100.00
14232;BME280;7200;52.194;9.900;2023-07-13T08:52:38;100308.03;;;21.49;100.00
14232;BME280;7200;52.194;9.900;2023-07-13T08:55:19;100310.06;;;21.56;100.00
14232;BME280;7200;52.194;9.900;2023-07-13T08:57:48;100317.19;;;21.46;100.00
14232;BME280;7200;52.194;9.900;2023-07-13T09:00:17;100316.09;;;21.70;100.00
14232;BME280;7200;52.194;9.900;2023-07-13T09:05:14;100312.34;;;22.03;100.00
14232;BME280;7200;52.194;9.900;2023-07-13T09:10:46;100313.00;;;21.95;100.00
14232;BME280;7200;52.194;9.900;2023-07-13T09:13:37;100314.31;;;22.53;100.00
14232;BME280;7200;52.194;9.900;2023-07-13T09:16:04;100322.81;;;22.27;100.00
14232;BME280;7200;52.194;9.900;2023-07-13T09:18:50;100320.72;;;22.71;100.00
14232;BME280;7200;52.194;9.900;2023-07-13T09:21:22;100319.25;;;22.48;100.00
14232;BME280;7200;52.194;9.900;2023-07-13T09:23:52;100324.00;;;22.75;100.00
14232;BME280;7200;52.194;9.900;2023-07-13T09:26:20;100323.66;;;23.09;100.00
14232;BME280;7200;52.194;9.900;2023-07-13T09:28:48;100315.53;;;22.49;100.00
14232;BME280;7200;52.194;9.900;2023-07-13T09:31:20;100325.59;;;22.47;100.00
14232;BME280;7200;52.194;9.900;2023-07-13T09:33:48;100331.19;;;22.65;100.00
14232;BME280;7200;52.194;9.900;2023-07-13T09:36:27;100330.22;;;22.35;100.00
14232;BME280;7200;52.194;9.900;2023-07-13T09:39:14;100330.88;;;22.27;100.00
14232;BME280;7200;52.194;9.900;2023-07-13T09:44:39;100327.06;;;22.61;100.00
14232;BME280;7200;52.194;9.900;2023-07-13T09:47:16;100320.66;;;22.21;100.00
14232;BME280;7200;52.194;9.900;2023-07-13T09:49:42;100322.69;;;22.29;100.00
14232;BME280;7200;52.194;9.900;2023-07-13T09:52:12;100317.47;;;22.68;100.00
14232;BME280;7200;52.194;9.900;2023-07-13T09:54:39;100329.34;;;22.65;100.00
14232;BME280;7200;52.194;9.900;2023-07-13T09:57:13;100329.22;;;22.77;100.00
14232;BME280;7200;52.194;9.900;2023-07-13T09:59:43;100318.59;;;22.65;100.00
14232;BME280;7200;52.194;9.900;2023-07-13T10:04:55;100330.84;;;22.89;100.00
14232;BME280;7200;52.194;9.900;2023-07-13T10:07:22;100328.66;;;23.13;100.00
14232;BME280;7200;52.194;9.900;2023-07-13T10:09:52;100312.13;;;22.87;100.00
14232;BME280;7200;52.194;9.900;2023-07-13T10:12:18;100325.59;;;22.87;100.00
14232;BME280;7200;52.194;9.900;2023-07-13T10:14:44;100326.78;;;23.04;100.00
14232;BME280;7200;52.194;9.900;2023-07-13T10:17:12;100311.00;;;23.00;100.00
14232;BME280;7200;52.194;9.900;2023-07-13T10:19:41;100326.56;;;22.96;100.00
14232;BME280;7200;52.194;9.900;2023-07-13T10:24:57;100331.91;;;23.27;100.00
14232;BME280;7200;52.194;9.900;2023-07-13T10:27:30;100323.81;;;23.56;100.00
14232;BME280;7200;52.194;9.900;2023-07-13T10:30:28;100333.06;;;23.83;100.00
14232;BME280;7200;52.194;9.900;2023-07-13T10:32:58;100325.81;;;23.35;100.00
14232;BME280;7200;52.194;9.900;2023-07-13T10:35:24;100330.06;;;23.47;100.00
14232;BME280;7200;52.194;9.900;2023-07-13T10:37:58;100330.94;;;23.38;100.00
14232;BME280;7200;52.194;9.900;2023-07-13T10:40:38;100331.06;;;23.65;100.00
14232;BME280;7200;52.194;9.900;2023-07-13T10:43:11;100327.41;;;23.57;100.00
14232;BME280;7200;52.194;9.900;2023-07-13T10:45:40;100329.94;;;23.68;100.00
14232;BME280;7200;52.194;9.900;2023-07-13T10:48:06;100317.75;;;23.74;100.00
14232;BME280;7200;52.194;9.900;2023-07-13T10:50:37;100332.63;;;23.48;100.00
14232;BME280;7200;52.194;9.900;2023-07-13T10:53:31;100326.66;;;23.35;100.00
14232;BME280;7200;52.194;9.900;2023-07-13T10:56:02;100339.41;;;23.72;100.00
14232;BME280;7200;52.194;9.900;2023-07-13T10:58:36;100333.34;;;23.60;100.00
14232;BME280;7200;52.194;9.900;2023-07-13T11:01:03;100322.41;;;23.62;100.00
14232;BME280;7200;52.194;9.900;2023-07-13T11:03:34;100334.44;;;24.06;100.00
14232;BME280;7200;52.194;9.900;2023-07-13T11:08:38;100347.94;;;23.97;100.00
14232;BME280;7200;52.194;9.900;2023-07-13T11:18:46;100329.84;;;24.26;100.00
14232;BME280;7200;52.194;9.900;2023-07-13T11:21:25;100322.69;;;24.35;100.00
14232;BME280;7200;52.194;9.900;2023-07-13T11:23:53;100317.94;;;24.19;100.00
14232;BME280;7200;52.194;9.900;2023-07-13T11:26:50;100318.72;;;23.63;100.00
14232;BME280;7200;52.194;9.900;2023-07-13T11:31:59;100321.56;;;23.90;100.00
14232;BME280;7200;52.194;9.900;2023-07-13T11:34:35;100330.91;;;23.96;100.00
14232;BME280;7200;52.194;9.900;2023-07-13T11:37:01;100324.44;;;24.26;100.00
14232;BME280;7200;52.194;9.900;2023-07-13T11:39:31;100322.59;;;24.64;100.00
14232;BME280;7200;52.194;9.900;2023-07-13T11:42:00;100310.09;;;24.63;100.00
14232;BME280;7200;52.194;9.900;2023-07-13T11:44:27;100315.34;;;24.27;100.00
14232;BME280;7200;52.194;9.900;2023-07-13T11:46:56;100320.34;;;24.22;100.00
14232;BME280;7200;52.194;9.900;2023-07-13T11:49:26;100328.97;;;24.63;100.00
14232;BME280;7200;52.194;9.900;2023-07-13T11:51:52;100303.81;;;24.45;100.00
14232;BME280;7200;52.194;9.900;2023-07-13T11:56:50;100314.72;;;25.27;100.00
14232;BME280;7200;52.194;9.900;2023-07-13T11:59:15;100307.00;;;25.32;100.00
14232;BME280;7200;52.194;9.900;2023-07-13T12:01:47;100303.03;;;25.08;100.00
14232;BME280;7200;52.194;9.900;2023-07-13T12:04:27;100291.47;;;24.98;100.00
14232;BME280;7200;52.194;9.900;2023-07-13T12:07:05;100307.13;;;24.84;100.00
14232;BME280;7200;52.194;9.900;2023-07-13T12:09:32;100278.09;;;24.51;100.00
14232;BME280;7200;52.194;9.900;2023-07-13T12:11:58;100295.63;;;24.64;100.00
14232;BME280;7200;52.194;9.900;2023-07-13T12:14:25;100294.56;;;24.47;100.00
14232;BME280;7200;52.194;9.900;2023-07-13T12:16:52;100281.50;;;24.43;100.00
14232;BME280;7200;52.194;9.900;2023-07-13T12:19:19;100277.19;;;24.60;100.00
14232;BME280;7200;52.194;9.900;2023-07-13T12:21:45;100286.72;;;24.82;100.00
14232;BME280;7200;52.194;9.900;2023-07-13T12:24:19;100283.63;;;24.77;100.00
14232;BME280;7200;52.194;9.900;2023-07-13T12:26:50;100278.09;;;24.96;100.00
14232;BME280;7200;52.194;9.900;2023-07-13T12:29:17;100272.47;;;24.90;100.00
14232;BME280;7200;52.194;9.900;2023-07-13T12:31:48;100286.53;;;24.65;100.00
14232;BME280;7200;52.194;9.900;2023-07-13T12:34:16;100285.28;;;24.60;100.00
14232;BME280;7200;52.194;9.900;2023-07-13T12:36:52;100300.75;;;24.30;100.00
14232;BME280;7200;52.194;9.900;2023-07-13T12:39:22;100301.81;;;24.37;100.00
14232;BME280;7200;52.194;9.900;2023-07-13T12:41:50;100307.19;;;24.47;100.00
14232;BME280;7200;52.194;9.900;2023-07-13T12:44:28;100290.31;;;24.45;100.00
14232;BME280;7200;52.194;9.900;2023-07-13T12:47:05;100314.66;;;24.91;100.00
14232;BME280;7200;52.194;9.900;2023-07-13T12:49:40;100303.75;;;24.82;100.00
14232;BME280;7200;52.194;9.900;2023-07-13T12:52:14;100291.38;;;24.62;100.00
14232;BME280;7200;52.194;9.900;2023-07-13T12:54:39;100297.38;;;24.56;100.00
14232;BME280;7200;52.194;9.900;2023-07-13T12:57:05;100310.00;;;24.83;100.00
14232;BME280;7200;52.194;9.900;2023-07-13T12:59:34;100305.38;;;24.93;100.00
14232;BME280;7200;52.194;9.900;2023-07-13T13:02:02;100302.28;;;25.34;100.00
14232;BME280;7200;52.194;9.900;2023-07-13T13:04:30;100280.50;;;25.17;100.00
14232;BME280;7200;52.194;9.900;2023-07-13T13:07:03;100280.69;;;25.34;100.00
14232;BME280;7200;52.194;9.900;2023-07-13T13:09:31;100254.88;;;25.21;100.00
14232;BME280;7200;52.194;9.900;2023-07-13T13:11:57;100284.63;;;25.39;100.00
14232;BME280;7200;52.194;9.900;2023-07-13T13:14:23;100284.66;;;25.66;100.00
14232;BME280;7200;52.194;9.900;2023-07-13T13:16:50;100246.66;;;25.67;100.00
14232;BME280;7200;52.194;9.900;2023-07-13T13:19:20;100250.50;;;25.38;100.00
14232;BME280;7200;52.194;9.900;2023-07-13T13:21:47;100246.63;;;24.87;100.00
14232;BME280;7200;52.194;9.900;2023-07-13T13:24:17;100272.16;;;24.93;100.00
14232;BME280;7200;52.194;9.900;2023-07-13T13:26:44;100289.59;;;24.98;100.00